• Join FlightAware (Why Join?)
  • Login
  • US Flag 
05:03AM EDT


 

Airport Tracker/Info


-or-


 

Live Flight TrackerFlight Track Log ✈ SKW2959 ✈ 02-Jun-2012 ✈ KPHX - KSBA

Flight Track Log - Related Links

Times and Time Zones

All times are in EDT time to prevent confusion due to time zone crossing. See the SKW2959 flight status page for this flight to view local times or setup timezone preferences in your user account.

Time Position Orientation Groundspeed Altitude Reporting Facility
EDT Latitude Longitude Course Direction KTS MPH feet Rate Location/Type
10:50AM 33.4333 -111.9833 90° East 169 194 2,000  Level Phoenix TRACON
10:52AM 33.4333 -111.9000 121° Southeast 219 252 4,300 1,800 Climbing Phoenix TRACON
10:53AM 33.4000 -111.8333 192° South 267 307 6,200 1,980 Climbing Phoenix TRACON
10:54AM 33.3333 -111.8500 220° Southwest 272 313 8,400 2,220 Climbing Phoenix TRACON
10:55AM 33.2833 -111.9000 281° West 282 325 10,500 2,040 Climbing Phoenix TRACON
10:56AM 33.3000 -112.0000 281° West 289 333 12,300 1,920 Climbing Phoenix TRACON
10:57AM 33.3167 -112.1000 286° West 312 359 14,400 1,740 Climbing Phoenix TRACON
10:58AM 33.3414 -112.2050 282° West 313 360 15,700 1,620 Climbing Albuquerque Center
10:59AM 33.3583 -112.3003 283° West 338 389 17,600 1,680 Climbing Albuquerque Center
11:00AM 33.3792 -112.4061 281° West 338 389 19,100 1,260 Climbing Albuquerque Center
11:01AM 33.3972 -112.5164 282° West 338 389 20,200 1,140 Climbing Albuquerque Center
11:02AM 33.4158 -112.6172 282° West 338 389 21,400 1,200 Climbing Albuquerque Center
11:03AM 33.4358 -112.7278 282° West 338 389 22,700 1,200 Climbing Albuquerque Center
11:04AM 33.4558 -112.8411 285° West 338 389 23,800 960 Climbing Albuquerque Center
11:05AM 33.4783 -112.9422 281° West 338 389 24,700 900 Climbing Albuquerque Center
11:06AM 33.4975 -113.0656 285° West 343 395 25,600 840 Climbing Albuquerque Center
11:07AM 33.5231 -113.1842 282° West 362 417 26,400 840 Climbing Albuquerque Center
11:08AM 33.5442 -113.3053 282° West 362 417 27,300 720 Climbing Albuquerque Center
11:09AM 33.5656 -113.4214 283° West 362 417 27,900 540 Climbing Albuquerque Center
11:11AM 33.6169 -113.6917 281° West 374 430 29,100 540 Climbing Los Angeles Center
11:12AM 33.6383 -113.8208 287° West 382 440 29,600 420 Climbing Los Angeles Center
11:13AM 33.6697 -113.9472 287° West 389 448 30,000 180 Climbing Los Angeles Center
11:14AM 33.7033 -114.0761 286° West 394 453 30,000 300 Level Los Angeles Center
11:15AM 33.7344 -114.2053 287° West 394 453 30,700 660 Climbing Los Angeles Center
11:16AM 33.7678 -114.3347 286° West 394 453 31,400 600 Climbing Los Angeles Center
11:17AM 33.7967 -114.4589 288° West 394 453 31,900 300 Climbing Los Angeles Center
11:18AM 33.8317 -114.5858 286° West 394 453 32,000  Climbing Los Angeles Center
11:19AM 33.8625 -114.7128 286° West 394 453 32,000  Level Los Angeles Center
11:20AM 33.8931 -114.8400 286° West 394 453 32,000  Level Los Angeles Center
11:21AM 33.9236 -114.9647 286° West 394 453 32,000  Level Los Angeles Center
11:22AM 33.9539 -115.0894 287° West 394 453 32,000  Level Los Angeles Center
11:23AM 33.9842 -115.2119 287° West 389 448 32,000  Level Los Angeles Center
11:24AM 34.0142 -115.3317 286° West 389 448 32,000  Level Los Angeles Center
11:25AM 34.0442 -115.4544 286° West 384 442 32,000  Level Los Angeles Center
11:26AM 34.0719 -115.5744 285° West 374 430 32,000  Level Los Angeles Center
11:27AM 34.0994 -115.6972 287° West 379 436 32,000  Level Los Angeles Center
11:28AM 34.1292 -115.8175 282° West 379 436 32,000  Level Los Angeles Center
11:29AM 34.1481 -115.9281 285° West 374 430 32,000  Level Los Angeles Center
11:30AM 34.1753 -116.0483 285° West 374 430 32,000  Level Los Angeles Center
11:31AM 34.2044 -116.1764 285° West 374 430 32,000  Level Los Angeles Center
11:32AM 34.2336 -116.3047 277° West 387 445 32,000  Level Los Angeles Center
11:33AM 34.2481 -116.4403 272° West 400 460 32,000  Level Los Angeles Center
11:34AM 34.2517 -116.5811 275° West 412 474 32,000  Level Los Angeles Center
11:35AM 34.2617 -116.7169 274° West 418 481 32,000  Level Los Angeles Center
11:36AM 34.2692 -116.8553 276° West 418 481 32,000  Level Los Angeles Center
11:37AM 34.2808 -116.9836 274° West 411 473 32,000  Level Los Angeles Center
11:38AM 34.2881 -117.1169 273° West 405 466 32,000  Level Los Angeles Center
11:39AM 34.2933 -117.2478 274° West 405 466 32,000  Level Los Angeles Center
11:40AM 34.3003 -117.3811 270° West 405 466 32,000  Level Los Angeles Center
11:41AM 34.3011 -117.5117 273° West 405 466 32,000  Level Los Angeles Center
11:42AM 34.3078 -117.6478 272° West 405 466 32,000  Level Los Angeles Center
11:43AM 34.3122 -117.7811 275° West 405 466 32,000  Level Los Angeles Center
11:44AM 34.3228 -117.9247 272° West 405 466 32,000  Level Los Angeles Center
11:45AM 34.3269 -118.0606 273° West 405 466 32,000 -60 Level Los Angeles Center
11:46AM 34.3331 -118.1939 272° West 405 466 31,900 -1,380 Descending Los Angeles Center
11:47AM 34.3369 -118.3325 273° West 405 466 29,300 -2,640 Descending Los Angeles Center
11:48AM 34.3428 -118.4686 273° West 410 472 26,700 -2,640 Descending Los Angeles Center
11:49AM 34.3483 -118.6069 272° West 410 472 24,100 -1,380 Descending Los Angeles Center
11:50AM 34.3517 -118.7381 272° West 405 466 24,000 -360 Descending Los Angeles Center
11:51AM 34.3550 -118.8714 266° West 405 466 23,400 -1,740 Descending Los Angeles Center
11:52AM 34.3486 -118.9769 264° West 400 460 20,600 -3,300 Descending Los Angeles Center
11:53AM 34.3369 -119.1122 264° West 381 438 17,100 -3,540 Descending Los Angeles Center
11:53AM 34.3281 -119.2100 265° West 368 423 14,500 -3,240 Descending Los Angeles Center
11:54AM 34.3186 -119.3331 265° West 356 410 11,300 -2,280 Descending Los Angeles Center
11:56AM 34.3119 -119.4333 269° West 294 338 10,000 -1,500 Descending Los Angeles Center
11:57AM 34.3108 -119.5464 274° West 300 345 7,900 -1,860 Descending Los Angeles Center
11:58AM 34.3150 -119.6219 272° West 275 316 6,300 -1,020 Descending Los Angeles Center
11:59AM 34.3183 -119.7203 272° West 263 303 6,000 -180 Descending Los Angeles Center
12:00PM 34.3217 -119.8186 283° West 252 290 6,000  Level Los Angeles Center
12:01PM 34.3342 -119.8844 277° West 219 252 6,000  Level Los Angeles Center
12:02PM 34.3406 -119.9503 264° West 196 226 6,000 -1,080 Level Los Angeles Center
12:03PM 34.3342 -120.0228 321° Northwest 201 231 3,800 -1,740 Descending Los Angeles Center
12:04PM 34.3725 -120.0600 27° Northeast 189 217 2,300 -900 Descending Los Angeles Center
12:05PM 34.4025 -120.0411 62° Northeast 103 119 2,000 -180 Descending Los Angeles Center
12:06PM 34.4228 -119.9942 85° East 178 205 2,000 -300 Level Los Angeles Center
12:07PM 34.4264 -119.9414 94° East 155 178 1,500 -720 Descending Los Angeles Center
12:08PM 34.4236 -119.8986 79° East 137 158 700 -660 Descending Los Angeles Center
12:09PM 34.4314 -119.8486 79° East 131 151 100 -540 Descending Los Angeles Center